createdAt,value
2018-05-23T00:02:22.537Z,10.20
2018-05-23T00:04:51.203Z,8.50
2018-05-23T00:07:19.109Z,9.47
2018-05-23T00:09:47.739Z,9.20
2018-05-23T00:12:15.661Z,10.60
2018-05-23T00:14:43.559Z,9.73
2018-05-23T00:17:12.214Z,10.60
2018-05-23T00:19:39.721Z,10.63
2018-05-23T00:22:07.269Z,8.73
2018-05-23T00:24:34.797Z,11.53
2018-05-23T00:27:02.353Z,10.00
2018-05-23T00:29:29.865Z,10.10
2018-05-23T00:31:58.149Z,9.83
2018-05-23T00:34:25.688Z,10.00
2018-05-23T00:36:53.202Z,9.17
2018-05-23T00:39:20.719Z,9.27
2018-05-23T00:41:48.223Z,11.67
2018-05-23T00:44:15.753Z,11.93
2018-05-23T00:46:44.019Z,11.90
2018-05-23T00:49:11.534Z,11.87
2018-05-23T00:51:40.863Z,11.90
2018-05-23T00:54:08.406Z,11.20
2018-05-23T00:56:37.042Z,12.47
2018-05-23T00:59:04.946Z,12.00
2018-05-23T01:01:33.581Z,11.10
2018-05-23T01:04:02.435Z,10.50
2018-05-23T01:06:29.952Z,12.03
2018-05-23T01:08:58.278Z,10.10
2018-05-23T01:11:26.568Z,10.43
2018-05-23T01:13:54.065Z,9.77
2018-05-23T01:16:21.970Z,10.53
2018-05-23T01:18:49.467Z,10.20
2018-05-23T01:21:16.984Z,10.10
2018-05-23T01:23:45.281Z,11.80
2018-05-23T01:26:12.781Z,11.27
2018-05-23T01:28:41.068Z,11.13
2018-05-23T01:31:08.584Z,11.27
2018-05-23T01:33:37.460Z,11.47
2018-05-23T01:36:04.962Z,12.83
2018-05-23T01:38:33.624Z,11.70
2018-05-23T01:41:01.134Z,10.73
2018-05-23T01:43:30.165Z,12.00
2018-05-23T01:45:57.673Z,12.73
2018-05-23T01:48:25.968Z,13.80
2018-05-23T01:50:54.244Z,13.83
2018-05-23T01:53:21.746Z,14.03
2018-05-23T01:55:49.270Z,14.40
2018-05-23T01:58:16.771Z,14.70
2018-05-23T02:00:44.670Z,13.90
2018-05-23T02:03:12.940Z,12.10
2018-05-23T02:05:41.265Z,13.10
2018-05-23T02:08:08.771Z,13.27
2018-05-23T02:10:36.288Z,14.60
2018-05-23T02:13:04.577Z,14.33
2018-05-23T02:15:32.083Z,14.10
2018-05-23T02:17:59.600Z,14.07
2018-05-23T02:20:28.458Z,14.27
2018-05-23T02:22:55.971Z,14.90
2018-05-23T02:25:24.242Z,15.70
2018-05-23T02:27:52.924Z,13.17
2018-05-23T02:30:21.782Z,14.70
2018-05-23T02:32:49.298Z,13.20
2018-05-23T02:35:17.592Z,15.57
2018-05-23T02:37:46.456Z,15.10
2018-05-23T02:40:14.362Z,13.83
2018-05-23T02:42:41.854Z,14.40
2018-05-23T02:45:10.134Z,15.27
2018-05-23T02:47:37.631Z,15.27
2018-05-23T02:50:05.552Z,16.27
2018-05-23T02:52:33.045Z,16.13
2018-05-23T02:55:01.329Z,14.23
2018-05-23T02:57:28.854Z,16.03
2018-05-23T02:59:56.353Z,14.50
2018-05-23T03:02:24.263Z,15.47
2018-05-23T03:04:52.537Z,15.83
2018-05-23T03:07:20.330Z,14.13
2018-05-23T03:09:47.846Z,16.47
2018-05-23T03:12:15.751Z,16.47
2018-05-23T03:14:43.283Z,16.30
2018-05-23T03:17:10.786Z,16.53
2018-05-23T03:19:39.080Z,17.63
2018-05-23T03:22:06.667Z,17.27
2018-05-23T03:24:34.508Z,16.10
2018-05-23T03:27:02.006Z,16.40
2018-05-23T03:29:30.306Z,16.20
2018-05-23T03:31:57.803Z,16.50
2018-05-23T03:34:25.316Z,14.70
2018-05-23T03:36:53.611Z,16.27
2018-05-23T03:39:22.255Z,17.57
2018-05-23T03:41:49.784Z,17.17
2018-05-23T03:44:17.281Z,15.23
2018-05-23T03:46:44.801Z,14.83
2018-05-23T03:49:12.713Z,15.43
2018-05-23T03:51:41.590Z,15.60
2018-05-23T03:54:09.088Z,15.70
2018-05-23T03:56:38.123Z,16.23
2018-05-23T03:59:06.056Z,16.83
2018-05-23T04:01:45.488Z,16.87
2018-05-23T04:04:25.599Z,15.50
2018-05-23T04:07:20.571Z,16.50
2018-05-23T04:09:48.208Z,17.13
2018-05-23T04:12:16.035Z,15.83
2018-05-23T04:14:44.307Z,18.20
2018-05-23T04:17:11.836Z,17.77
2018-05-23T04:19:39.363Z,18.80
2018-05-23T04:22:06.881Z,21.77
2018-05-23T04:24:35.161Z,19.57
2018-05-23T04:27:02.661Z,21.57
2018-05-23T04:29:30.177Z,20.20
2018-05-23T04:31:57.691Z,20.30
2018-05-23T04:34:25.600Z,18.83
2018-05-23T04:36:53.110Z,20.87
2018-05-23T04:39:20.688Z,17.93
2018-05-23T04:41:48.159Z,19.60
2018-05-23T04:44:16.500Z,20.27
2018-05-23T04:46:44.405Z,20.63
2018-05-23T04:49:12.688Z,18.83
2018-05-23T04:51:40.980Z,20.40
2018-05-23T04:54:08.510Z,19.93
2018-05-23T04:56:36.790Z,20.70
2018-05-23T04:59:04.320Z,20.10
2018-05-23T05:01:31.835Z,20.00
2018-05-23T05:03:59.344Z,18.80
2018-05-23T05:06:27.284Z,19.07
2018-05-23T05:08:54.796Z,19.37
2018-05-23T05:11:22.290Z,16.60
2018-05-23T05:13:49.818Z,18.50
2018-05-23T05:16:18.102Z,18.47
2018-05-23T05:18:45.617Z,17.30
2018-05-23T05:21:13.132Z,17.70
2018-05-23T05:23:41.058Z,16.40
2018-05-23T05:26:09.321Z,17.90
2018-05-23T05:28:36.847Z,17.90
2018-05-23T05:31:05.121Z,18.33
2018-05-23T05:33:32.655Z,19.13
2018-05-23T05:36:00.157Z,17.60
2018-05-23T05:38:27.662Z,18.03
2018-05-23T05:40:55.190Z,17.87
2018-05-23T05:43:22.690Z,18.17
2018-05-23T05:45:50.213Z,17.30
2018-05-23T05:48:17.729Z,17.27
2018-05-23T05:50:45.258Z,15.97
2018-05-23T05:53:12.780Z,17.60
2018-05-23T05:55:40.695Z,17.60
2018-05-23T05:58:08.994Z,19.00
2018-05-23T06:00:36.497Z,17.23
2018-05-23T06:03:04.782Z,16.97
2018-05-23T06:05:33.064Z,18.50
2018-05-23T06:08:01.360Z,18.73
2018-05-23T06:10:28.890Z,16.80
2018-05-23T06:12:56.794Z,16.60
2018-05-23T06:15:24.303Z,17.27
2018-05-23T06:17:52.194Z,16.13
2018-05-23T06:20:20.488Z,17.07
2018-05-23T06:22:48.003Z,17.20
2018-05-23T06:25:15.535Z,17.20
2018-05-23T06:27:44.192Z,18.13
2018-05-23T06:30:11.715Z,17.63
2018-05-23T06:32:39.223Z,15.77
2018-05-23T06:35:06.771Z,18.27
2018-05-23T06:37:34.320Z,16.43
2018-05-23T06:40:02.639Z,15.40
2018-05-23T06:42:30.173Z,15.63
2018-05-23T06:44:57.722Z,15.63
2018-05-23T06:47:26.027Z,15.33
2018-05-23T06:49:53.624Z,15.57
2018-05-23T06:52:21.107Z,15.27
2018-05-23T06:54:49.382Z,13.77
2018-05-23T06:57:17.681Z,15.13
2018-05-23T06:59:46.195Z,15.37
2018-05-23T07:02:14.459Z,14.23
2018-05-23T07:04:41.976Z,14.70
2018-05-23T07:07:10.246Z,14.10
2018-05-23T07:09:38.561Z,14.77
2018-05-23T07:12:07.206Z,13.70
2018-05-23T07:14:35.493Z,14.47
2018-05-23T07:17:03.764Z,13.87
2018-05-23T07:19:32.074Z,13.50
2018-05-23T07:21:59.598Z,14.13
2018-05-23T07:24:27.875Z,13.77
2018-05-23T07:26:56.168Z,14.27
2018-05-23T07:29:23.712Z,13.90
2018-05-23T07:31:52.008Z,12.17
2018-05-23T07:34:19.516Z,11.80
2018-05-23T07:36:47.039Z,10.90
2018-05-23T07:39:14.557Z,10.90
2018-05-23T07:41:42.861Z,12.43
2018-05-23T07:44:10.372Z,12.93
2018-05-23T07:46:38.643Z,11.87
2018-05-23T07:49:06.154Z,12.43
2018-05-23T07:51:33.671Z,10.80
2018-05-23T07:54:01.190Z,10.97
2018-05-23T07:56:29.092Z,10.93
2018-05-23T07:58:56.621Z,10.57
2018-05-23T08:01:24.114Z,9.43
2018-05-23T08:03:52.407Z,10.60
2018-05-23T08:06:19.911Z,9.83
2018-05-23T08:08:47.812Z,9.13
2018-05-23T08:11:15.339Z,9.63
2018-05-23T08:13:42.852Z,8.83
2018-05-23T08:16:10.386Z,9.50
2018-05-23T08:18:37.894Z,8.73
2018-05-23T08:21:05.421Z,9.50
2018-05-23T08:23:32.930Z,8.60
2018-05-23T08:26:00.856Z,8.73
2018-05-23T08:28:28.361Z,9.63
2018-05-23T08:30:55.857Z,8.80
2018-05-23T08:33:23.381Z,9.97
2018-05-23T08:35:51.288Z,10.10
2018-05-23T08:38:18.799Z,10.10
2018-05-23T08:40:46.311Z,10.07
2018-05-23T08:43:13.825Z,9.23
2018-05-23T08:45:42.099Z,8.37
2018-05-23T08:48:09.626Z,9.00
2018-05-23T08:50:37.893Z,8.97
2018-05-23T08:53:06.162Z,11.20
2018-05-23T08:55:33.677Z,8.80
2018-05-23T08:58:01.183Z,9.60
2018-05-23T09:00:28.704Z,10.43
2018-05-23T09:02:56.610Z,10.47
2018-05-23T09:05:24.543Z,9.83
2018-05-23T09:07:52.051Z,10.03
2018-05-23T09:10:19.572Z,10.27
2018-05-23T09:12:47.094Z,8.70
2018-05-23T09:15:14.605Z,7.70
2018-05-23T09:17:42.120Z,9.43
2018-05-23T09:20:09.629Z,8.40
2018-05-23T09:22:37.146Z,8.47
2018-05-23T09:25:05.056Z,8.80
2018-05-23T09:27:32.585Z,9.13
2018-05-23T09:30:00.095Z,11.77
2018-05-23T09:32:27.632Z,10.13
2018-05-23T09:34:55.158Z,11.40
2018-05-23T09:37:22.673Z,9.40
2018-05-23T09:39:50.957Z,7.47
2018-05-23T09:42:18.462Z,8.47
2018-05-23T09:44:45.988Z,7.53
2018-05-23T09:47:13.549Z,8.60
2018-05-23T09:49:41.063Z,7.20
2018-05-23T09:52:08.579Z,8.80
2018-05-23T09:54:36.107Z,8.60
2018-05-23T09:57:04.388Z,9.37
2018-05-23T09:59:31.929Z,7.83
2018-05-23T10:02:00.211Z,8.83
2018-05-23T10:04:28.131Z,7.50
2018-05-23T10:06:55.654Z,10.13
2018-05-23T10:09:23.172Z,8.87
2018-05-23T10:11:50.700Z,8.37
2018-05-23T10:14:18.598Z,8.43
2018-05-23T10:16:46.119Z,8.40
2018-05-23T10:19:13.625Z,8.20
2018-05-23T10:21:41.530Z,7.90
2018-05-23T10:24:09.444Z,7.97
2018-05-23T10:26:36.994Z,7.90
2018-05-23T10:29:04.521Z,8.40
2018-05-23T10:31:32.031Z,6.13
2018-05-23T10:33:59.955Z,7.70
2018-05-23T10:36:27.465Z,6.70
2018-05-23T10:38:54.966Z,6.70
2018-05-23T10:41:22.493Z,6.90
2018-05-23T10:43:50.749Z,6.50
2018-05-23T10:46:18.326Z,7.87
2018-05-23T10:48:45.787Z,7.17
2018-05-23T10:51:14.076Z,7.60
2018-05-23T10:53:42.334Z,7.60
2018-05-23T10:56:10.280Z,7.50
2018-05-23T10:58:37.783Z,8.63
2018-05-23T11:01:05.301Z,7.50
2018-05-23T11:03:33.587Z,8.80
2018-05-23T11:06:01.905Z,9.50
2018-05-23T11:08:30.169Z,7.83
2018-05-23T11:10:58.423Z,7.47
2018-05-23T11:13:25.950Z,7.27
2018-05-23T11:15:53.849Z,7.87
2018-05-23T11:18:21.759Z,7.80
2018-05-23T11:20:49.265Z,7.60
2018-05-23T11:23:16.762Z,7.90
2018-05-23T11:25:44.283Z,6.67
2018-05-23T11:28:12.552Z,6.83
2018-05-23T11:30:40.085Z,6.90
2018-05-23T11:33:07.595Z,7.00
2018-05-23T11:35:35.135Z,7.43
2018-05-23T11:38:02.633Z,6.83
2018-05-23T11:40:30.136Z,7.70
2018-05-23T11:42:57.654Z,6.90
2018-05-23T11:45:25.167Z,6.83
2018-05-23T11:47:52.713Z,6.80
2018-05-23T11:50:20.209Z,6.07
2018-05-23T11:52:48.501Z,5.70
2018-05-23T11:55:16.798Z,6.90
2018-05-23T11:57:45.055Z,6.80
2018-05-23T12:00:13.353Z,5.70
2018-05-23T12:02:40.865Z,5.73
2018-05-23T12:05:08.381Z,5.90
2018-05-23T12:07:35.883Z,6.20
2018-05-23T12:10:03.405Z,5.63
2018-05-23T12:12:30.923Z,5.00
2018-05-23T12:14:59.212Z,4.83
2018-05-23T12:17:27.119Z,4.80
2018-05-23T12:19:54.621Z,5.13
2018-05-23T12:22:22.899Z,4.60
2018-05-23T12:24:51.163Z,5.40
2018-05-23T12:27:18.693Z,5.67
2018-05-23T12:29:46.196Z,5.10
2018-05-23T12:32:14.491Z,6.30
2018-05-23T12:34:41.998Z,5.90
2018-05-23T12:37:09.515Z,5.20
2018-05-23T12:39:37.028Z,6.20
2018-05-23T12:42:04.534Z,6.03
2018-05-23T12:44:32.053Z,5.97
2018-05-23T12:47:00.344Z,6.57
2018-05-23T12:49:28.655Z,5.53
2018-05-23T12:51:56.146Z,6.43
2018-05-23T12:54:24.068Z,5.17
2018-05-23T12:56:51.592Z,6.10
2018-05-23T12:59:19.104Z,5.73
2018-05-23T13:01:46.615Z,5.13
2018-05-23T13:04:14.880Z,4.70
2018-05-23T13:06:42.394Z,4.40
2018-05-23T13:09:10.672Z,5.10
2018-05-23T13:11:38.593Z,5.23
2018-05-23T13:14:06.876Z,4.77
2018-05-23T13:16:35.159Z,4.77
2018-05-23T13:19:03.422Z,4.60
2018-05-23T13:21:31.364Z,5.13
2018-05-23T13:23:58.871Z,4.93
2018-05-23T13:26:26.374Z,5.40
2018-05-23T13:28:53.898Z,4.87
2018-05-23T13:31:21.795Z,4.43
2018-05-23T13:33:49.310Z,4.90
2018-05-23T13:36:16.830Z,4.57
2018-05-23T13:38:44.365Z,5.10
2018-05-23T13:41:12.266Z,4.67
2018-05-23T13:43:39.812Z,5.23
2018-05-23T13:46:07.332Z,4.37
2018-05-23T13:48:34.848Z,4.70
2018-05-23T13:51:03.132Z,5.27
2018-05-23T13:53:31.034Z,5.33
2018-05-23T13:55:58.574Z,5.33
2018-05-23T13:58:26.478Z,4.47
2018-05-23T14:00:54.006Z,3.87
2018-05-23T14:03:21.538Z,5.00
2018-05-23T14:05:49.049Z,4.83
2018-05-23T14:08:16.566Z,4.30
2018-05-23T14:10:44.836Z,4.63
2018-05-23T14:13:12.357Z,3.93
2018-05-23T14:15:39.870Z,4.60
2018-05-23T14:18:08.154Z,4.07
2018-05-23T14:20:36.425Z,3.70
2018-05-23T14:23:04.354Z,4.37
2018-05-23T14:25:31.860Z,4.10
2018-05-23T14:27:59.371Z,4.20
2018-05-23T14:30:26.890Z,4.00
2018-05-23T14:32:54.404Z,4.07
2018-05-23T14:35:21.914Z,4.10
2018-05-23T14:37:49.415Z,4.43
2018-05-23T14:40:16.947Z,4.37
2018-05-23T14:42:44.446Z,3.73
2018-05-23T14:45:11.985Z,4.53
2018-05-23T14:47:39.895Z,4.53
2018-05-23T14:50:08.213Z,4.73
2018-05-23T14:52:35.696Z,3.93
2018-05-23T14:55:03.201Z,4.30
2018-05-23T14:57:31.488Z,4.50
2018-05-23T14:59:59.767Z,4.33
2018-05-23T15:02:28.495Z,4.07
2018-05-23T15:04:56.701Z,5.20
2018-05-23T15:07:24.620Z,4.63
2018-05-23T15:09:52.887Z,4.50
2018-05-23T15:12:20.401Z,4.40
2018-05-23T15:14:48.318Z,4.13
2018-05-23T15:17:15.832Z,4.10
2018-05-23T15:19:43.798Z,4.10
2018-05-23T15:22:12.797Z,4.57
2018-05-23T15:24:41.104Z,4.30
2018-05-23T15:27:09.394Z,4.43
2018-05-23T15:29:36.949Z,4.00
2018-05-23T15:32:05.259Z,4.20
2018-05-23T15:34:32.796Z,4.60
2018-05-23T15:37:00.323Z,4.67
2018-05-23T15:39:27.853Z,4.60
2018-05-23T15:41:55.791Z,4.40
2018-05-23T15:44:23.320Z,4.40
2018-05-23T15:46:51.297Z,5.23
2018-05-23T15:49:18.833Z,4.40
2018-05-23T15:51:46.765Z,4.67
2018-05-23T15:54:14.675Z,4.67
2018-05-23T15:56:42.226Z,4.20
2018-05-23T15:59:09.761Z,3.67
2018-05-23T16:01:38.672Z,4.03
2018-05-23T16:04:07.028Z,3.47
2018-05-23T16:06:34.981Z,3.37
2018-05-23T16:09:05.322Z,3.37
2018-05-23T16:11:33.623Z,3.00
2018-05-23T16:14:01.921Z,3.03
2018-05-23T16:16:29.861Z,3.80
2018-05-23T16:18:57.804Z,3.50
2018-05-23T16:21:26.595Z,3.60
2018-05-23T16:23:54.921Z,4.17
2018-05-23T16:26:24.961Z,3.47
2018-05-23T16:28:52.495Z,3.50
2018-05-23T16:31:20.525Z,3.77
2018-05-23T16:33:48.439Z,3.43
2018-05-23T16:36:16.011Z,3.40
2018-05-23T16:38:44.750Z,4.00
2018-05-23T16:41:14.248Z,4.70
2018-05-23T16:43:41.807Z,4.50
2018-05-23T16:46:10.157Z,3.83
2018-05-23T16:48:38.527Z,4.40
2018-05-23T16:51:07.594Z,4.60
2018-05-23T16:53:35.541Z,4.57
2018-05-23T16:56:03.873Z,5.17
2018-05-23T16:58:32.063Z,5.23
2018-05-23T17:01:00.027Z,4.90
2018-05-23T17:03:27.640Z,4.63
2018-05-23T17:05:56.327Z,5.03
2018-05-23T17:08:24.002Z,6.03
2018-05-23T17:10:52.379Z,6.73
2018-05-23T17:13:19.947Z,6.30
2018-05-23T17:15:51.437Z,5.83
2018-05-23T17:18:19.997Z,5.67
2018-05-23T17:20:47.568Z,5.10
2018-05-23T17:23:16.286Z,6.43
2018-05-23T17:25:43.828Z,6.00
2018-05-23T17:28:11.833Z,6.40
2018-05-23T17:30:40.133Z,6.50
2018-05-23T17:33:08.094Z,6.20
2018-05-23T17:35:38.644Z,6.13
2018-05-23T17:38:07.443Z,6.40
2018-05-23T17:40:37.099Z,5.47
2018-05-23T17:43:08.079Z,5.33
2018-05-23T17:45:35.659Z,5.40
2018-05-23T17:48:04.418Z,7.83
2018-05-23T17:50:32.066Z,6.20
2018-05-23T17:53:00.570Z,6.60
2018-05-23T17:55:28.112Z,5.77
2018-05-23T17:57:58.123Z,5.90
2018-05-23T18:00:27.038Z,6.57
2018-05-23T18:02:55.953Z,6.60
2018-05-23T18:05:24.054Z,5.30
2018-05-23T18:07:52.882Z,7.40
2018-05-23T18:10:21.584Z,5.90
2018-05-23T18:12:52.932Z,6.50
2018-05-23T18:15:24.490Z,5.97
2018-05-23T18:17:53.683Z,5.93
2018-05-23T18:20:23.329Z,5.70
2018-05-23T18:22:51.258Z,4.73
2018-05-23T18:25:20.953Z,5.00
2018-05-23T18:27:49.698Z,4.90
2018-05-23T18:30:18.837Z,5.50
2018-05-23T18:32:47.238Z,5.60
2018-05-23T18:35:16.190Z,4.80
2018-05-23T18:37:45.797Z,5.60
2018-05-23T18:40:14.818Z,5.77
2018-05-23T18:42:44.650Z,6.17
2018-05-23T18:45:15.041Z,5.40
2018-05-23T18:47:44.210Z,5.23
2018-05-23T18:50:12.837Z,5.40
2018-05-23T18:52:40.702Z,5.87
2018-05-23T18:55:10.433Z,4.90
2018-05-23T18:57:42.002Z,4.27
2018-05-23T19:00:10.318Z,5.83
2018-05-23T19:02:40.713Z,5.40
2018-05-23T19:05:09.985Z,4.20
2018-05-23T19:07:39.130Z,5.13
2018-05-23T19:10:06.695Z,5.00
2018-05-23T19:15:10.206Z,5.90
2018-05-23T19:17:40.844Z,5.60
2018-05-23T19:20:10.993Z,6.53
2018-05-23T19:22:40.961Z,5.63
2018-05-23T19:25:13.988Z,5.77
2018-05-23T19:27:43.847Z,5.67
2018-05-23T19:30:12.990Z,5.00
2018-05-23T19:32:42.759Z,6.07
2018-05-23T19:35:10.933Z,5.53
2018-05-23T19:37:39.500Z,5.37
2018-05-23T19:40:07.931Z,6.30
2018-05-23T19:42:37.260Z,7.30
2018-05-23T19:45:08.541Z,5.60
2018-05-23T19:47:39.279Z,6.23
2018-05-23T19:50:09.289Z,6.40
2018-05-23T19:52:38.285Z,6.80
2018-05-23T19:55:06.648Z,5.80
2018-05-23T19:57:35.109Z,6.73
2018-05-23T20:00:04.249Z,6.73
2018-05-23T20:02:34.302Z,7.10
2018-05-23T20:05:02.676Z,8.03
2018-05-23T20:07:31.081Z,8.27
2018-05-23T20:09:59.719Z,8.00
2018-05-23T20:12:28.202Z,6.87
2018-05-23T20:14:56.830Z,8.47
2018-05-23T20:17:25.333Z,11.07
2018-05-23T20:19:54.308Z,7.60
2018-05-23T20:22:23.219Z,6.53
2018-05-23T20:24:51.141Z,6.60
2018-05-23T20:27:20.939Z,6.70
2018-05-23T20:29:50.116Z,7.10
2018-05-23T20:32:18.731Z,7.27
2018-05-23T20:34:46.924Z,6.60
2018-05-23T20:37:15.318Z,7.50
2018-05-23T20:39:46.854Z,7.57
2018-05-23T20:42:17.682Z,6.03
2018-05-23T20:44:47.350Z,6.53
2018-05-23T20:47:15.009Z,7.33
2018-05-23T20:49:43.572Z,7.17
2018-05-23T20:52:11.134Z,6.20
2018-05-23T20:54:38.780Z,7.67
2018-05-23T20:57:06.964Z,6.37
2018-05-23T20:59:34.596Z,6.70
2018-05-23T21:02:02.999Z,6.80
2018-05-23T21:04:31.159Z,7.53
2018-05-23T21:07:00.212Z,7.50
2018-05-23T21:09:29.293Z,7.53
2018-05-23T21:11:57.127Z,7.50
2018-05-23T21:14:24.690Z,7.30
2018-05-23T21:16:53.585Z,7.60
2018-05-23T21:19:21.182Z,7.30
2018-05-23T21:21:49.506Z,6.80
2018-05-23T21:24:17.827Z,8.40
2018-05-23T21:26:45.760Z,6.63
2018-05-23T21:29:13.696Z,8.80
2018-05-23T21:31:42.746Z,7.00
2018-05-23T21:34:11.969Z,8.67
2018-05-23T21:36:40.914Z,8.17
2018-05-23T21:39:09.208Z,8.10
2018-05-23T21:41:39.219Z,7.40
2018-05-23T21:44:06.809Z,7.53
2018-05-23T21:46:35.502Z,7.60
2018-05-23T21:49:03.432Z,7.83
2018-05-23T21:51:31.382Z,8.27
2018-05-23T21:54:00.044Z,7.30
2018-05-23T21:56:27.584Z,7.83
2018-05-23T21:58:55.091Z,8.00
2018-05-23T22:01:24.150Z,7.40
2018-05-23T22:03:52.362Z,8.10
2018-05-23T22:06:20.660Z,7.53
2018-05-23T22:08:48.588Z,8.00
2018-05-23T22:11:17.270Z,7.53
2018-05-23T22:13:44.798Z,7.70
2018-05-23T22:16:13.657Z,7.40
2018-05-23T22:18:41.208Z,7.70
2018-05-23T22:21:09.502Z,9.27
2018-05-23T22:23:37.074Z,7.43
2018-05-23T22:26:05.354Z,6.80
2018-05-23T22:28:32.867Z,8.20
2018-05-23T22:31:01.257Z,8.73
2018-05-23T22:33:29.630Z,8.50
2018-05-23T22:35:58.696Z,7.50
2018-05-23T22:38:26.606Z,8.60
2018-05-23T22:40:54.884Z,8.93
2018-05-23T22:43:23.156Z,8.23
2018-05-23T22:45:51.447Z,7.70
2018-05-23T22:48:19.720Z,7.90
2018-05-23T22:50:47.630Z,9.13
2018-05-23T22:53:15.146Z,9.70
2018-05-23T22:55:43.047Z,8.67
2018-05-23T22:58:10.566Z,9.53
2018-05-23T23:00:38.469Z,9.87
2018-05-23T23:03:05.989Z,11.03
2018-05-23T23:05:34.266Z,10.60
2018-05-23T23:08:02.195Z,11.13
2018-05-23T23:10:30.122Z,10.10
2018-05-23T23:12:57.642Z,10.80
2018-05-23T23:15:25.145Z,10.90
2018-05-23T23:17:52.669Z,12.13
2018-05-23T23:20:21.315Z,12.30
2018-05-23T23:22:48.843Z,12.63
2018-05-23T23:25:16.741Z,12.43
2018-05-23T23:27:44.310Z,12.40
2018-05-23T23:30:12.579Z,10.20
2018-05-23T23:32:41.427Z,10.63
2018-05-23T23:35:08.941Z,12.17
2018-05-23T23:37:36.459Z,12.37
2018-05-23T23:40:04.681Z,12.27
2018-05-23T23:42:33.717Z,11.47
2018-05-23T23:45:01.271Z,13.07
2018-05-23T23:47:29.538Z,11.90
2018-05-23T23:49:57.869Z,10.27
2018-05-23T23:52:25.777Z,11.63
2018-05-23T23:54:53.679Z,10.20
2018-05-23T23:57:21.220Z,9.90
2018-05-23T23:59:49.527Z,11.00
